sensor_id;sensor_type;location;lat;lon;timestamp;P1;durP1;ratioP1;P2;durP2;ratioP2
20314;SDS011;10315;50.958;13.080;2023-05-10T00:00:31;6.10;;;2.40;;
20314;SDS011;10315;50.958;13.080;2023-05-10T00:10:32;4.10;;;3.03;;
20314;SDS011;10315;50.958;13.080;2023-05-10T00:20:35;10.90;;;3.27;;
20314;SDS011;10315;50.958;13.080;2023-05-10T00:30:37;9.97;;;2.80;;
20314;SDS011;10315;50.958;13.080;2023-05-10T00:40:40;5.40;;;3.27;;
20314;SDS011;10315;50.958;13.080;2023-05-10T00:50:42;9.37;;;2.80;;
20314;SDS011;10315;50.958;13.080;2023-05-10T01:00:46;6.60;;;3.63;;
20314;SDS011;10315;50.958;13.080;2023-05-10T01:10:48;6.13;;;2.80;;
20314;SDS011;10315;50.958;13.080;2023-05-10T01:20:54;7.07;;;3.07;;
20314;SDS011;10315;50.958;13.080;2023-05-10T01:41:39;6.93;;;3.33;;
20314;SDS011;10315;50.958;13.080;2023-05-10T01:51:47;6.63;;;3.00;;
20314;SDS011;10315;50.958;13.080;2023-05-10T02:01:55;6.27;;;2.83;;
20314;SDS011;10315;50.958;13.080;2023-05-10T02:12:01;4.63;;;2.97;;
20314;SDS011;10315;50.958;13.080;2023-05-10T02:22:06;6.33;;;3.37;;
20314;SDS011;10315;50.958;13.080;2023-05-10T02:32:09;4.23;;;2.87;;
20314;SDS011;10315;50.958;13.080;2023-05-10T02:42:15;4.20;;;2.93;;
20314;SDS011;10315;50.958;13.080;2023-05-10T02:52:21;5.67;;;2.90;;
20314;SDS011;10315;50.958;13.080;2023-05-10T03:02:28;6.20;;;2.67;;
20314;SDS011;10315;50.958;13.080;2023-05-10T03:12:31;4.43;;;3.30;;
20314;SDS011;10315;50.958;13.080;2023-05-10T03:22:55;5.30;;;3.00;;
20314;SDS011;10315;50.958;13.080;2023-05-10T03:33:03;4.10;;;2.80;;
20314;SDS011;10315;50.958;13.080;2023-05-10T03:43:07;3.83;;;3.30;;
20314;SDS011;10315;50.958;13.080;2023-05-10T03:53:09;8.70;;;2.80;;
20314;SDS011;10315;50.958;13.080;2023-05-10T04:03:12;5.63;;;3.17;;
20314;SDS011;10315;50.958;13.080;2023-05-10T04:13:14;4.63;;;3.10;;
20314;SDS011;10315;50.958;13.080;2023-05-10T04:23:17;6.57;;;3.70;;
20314;SDS011;10315;50.958;13.080;2023-05-10T04:33:18;6.03;;;3.00;;
20314;SDS011;10315;50.958;13.080;2023-05-10T04:43:21;15.03;;;3.30;;
20314;SDS011;10315;50.958;13.080;2023-05-10T04:53:23;3.50;;;2.80;;
20314;SDS011;10315;50.958;13.080;2023-05-10T05:03:39;10.83;;;3.00;;
20314;SDS011;10315;50.958;13.080;2023-05-10T05:13:40;5.20;;;3.63;;
20314;SDS011;10315;50.958;13.080;2023-05-10T05:23:46;6.67;;;3.10;;
20314;SDS011;10315;50.958;13.080;2023-05-10T05:33:47;4.80;;;3.53;;
20314;SDS011;10315;50.958;13.080;2023-05-10T05:43:50;3.93;;;2.60;;
20314;SDS011;10315;50.958;13.080;2023-05-10T05:53:52;6.37;;;2.60;;
20314;SDS011;10315;50.958;13.080;2023-05-10T06:03:55;4.00;;;2.80;;
20314;SDS011;10315;50.958;13.080;2023-05-10T06:13:56;4.80;;;2.43;;
20314;SDS011;10315;50.958;13.080;2023-05-10T06:23:59;4.13;;;2.78;;
20314;SDS011;10315;50.958;13.080;2023-05-10T06:34:01;3.00;;;2.55;;
20314;SDS011;10315;50.958;13.080;2023-05-10T06:44:04;2.63;;;2.20;;
20314;SDS011;10315;50.958;13.080;2023-05-10T06:54:05;4.80;;;2.30;;
20314;SDS011;10315;50.958;13.080;2023-05-10T07:04:08;3.58;;;2.33;;
20314;SDS011;10315;50.958;13.080;2023-05-10T07:14:10;5.13;;;2.13;;
20314;SDS011;10315;50.958;13.080;2023-05-10T07:24:13;2.80;;;2.08;;
20314;SDS011;10315;50.958;13.080;2023-05-10T07:34:14;2.75;;;2.10;;
20314;SDS011;10315;50.958;13.080;2023-05-10T07:44:17;3.45;;;2.25;;
20314;SDS011;10315;50.958;13.080;2023-05-10T07:54:20;2.80;;;2.22;;
20314;SDS011;10315;50.958;13.080;2023-05-10T08:04:25;4.78;;;2.65;;
20314;SDS011;10315;50.958;13.080;2023-05-10T08:14:27;3.92;;;2.45;;
20314;SDS011;10315;50.958;13.080;2023-05-10T08:24:31;2.63;;;2.42;;
20314;SDS011;10315;50.958;13.080;2023-05-10T08:34:34;3.17;;;2.83;;
20314;SDS011;10315;50.958;13.080;2023-05-10T08:44:37;5.97;;;2.72;;
20314;SDS011;10315;50.958;13.080;2023-05-10T08:54:39;4.82;;;3.00;;
20314;SDS011;10315;50.958;13.080;2023-05-10T09:04:42;4.80;;;3.20;;
20314;SDS011;10315;50.958;13.080;2023-05-10T09:14:44;4.32;;;3.03;;
20314;SDS011;10315;50.958;13.080;2023-05-10T09:24:47;4.65;;;3.10;;
20314;SDS011;10315;50.958;13.080;2023-05-10T09:34:49;4.60;;;3.17;;
20314;SDS011;10315;50.958;13.080;2023-05-10T09:44:53;6.28;;;2.78;;
20314;SDS011;10315;50.958;13.080;2023-05-10T09:54:54;3.30;;;3.00;;
20314;SDS011;10315;50.958;13.080;2023-05-10T10:04:57;4.97;;;2.80;;
20314;SDS011;10315;50.958;13.080;2023-05-10T10:15:01;6.43;;;2.60;;
20314;SDS011;10315;50.958;13.080;2023-05-10T10:25:06;7.15;;;3.13;;
20314;SDS011;10315;50.958;13.080;2023-05-10T10:35:08;4.70;;;3.08;;
20314;SDS011;10315;50.958;13.080;2023-05-10T10:45:14;7.00;;;3.38;;
20314;SDS011;10315;50.958;13.080;2023-05-10T10:55:16;7.10;;;3.60;;
20314;SDS011;10315;50.958;13.080;2023-05-10T11:05:24;3.28;;;2.97;;
20314;SDS011;10315;50.958;13.080;2023-05-10T11:15:48;3.70;;;2.88;;
20314;SDS011;10315;50.958;13.080;2023-05-10T11:25:51;3.28;;;2.33;;
20314;SDS011;10315;50.958;13.080;2023-05-10T11:35:53;2.95;;;2.50;;
20314;SDS011;10315;50.958;13.080;2023-05-10T11:45:56;3.80;;;2.75;;
20314;SDS011;10315;50.958;13.080;2023-05-10T11:56:02;4.03;;;2.88;;
20314;SDS011;10315;50.958;13.080;2023-05-10T12:06:06;6.97;;;3.42;;
20314;SDS011;10315;50.958;13.080;2023-05-10T12:16:15;9.80;;;3.15;;
20314;SDS011;10315;50.958;13.080;2023-05-10T12:26:19;8.10;;;3.70;;
20314;SDS011;10315;50.958;13.080;2023-05-10T12:36:23;6.10;;;3.90;;
20314;SDS011;10315;50.958;13.080;2023-05-10T12:46:26;8.00;;;3.58;;
20314;SDS011;10315;50.958;13.080;2023-05-10T12:56:28;5.95;;;3.80;;
20314;SDS011;10315;50.958;13.080;2023-05-10T13:06:31;7.05;;;3.63;;
20314;SDS011;10315;50.958;13.080;2023-05-10T13:16:32;5.47;;;3.80;;
20314;SDS011;10315;50.958;13.080;2023-05-10T13:26:35;8.50;;;4.70;;
20314;SDS011;10315;50.958;13.080;2023-05-10T13:36:37;6.70;;;5.17;;
20314;SDS011;10315;50.958;13.080;2023-05-10T13:46:40;6.97;;;4.20;;
20314;SDS011;10315;50.958;13.080;2023-05-10T13:56:43;7.83;;;3.93;;
20314;SDS011;10315;50.958;13.080;2023-05-10T14:06:46;4.83;;;3.83;;
20314;SDS011;10315;50.958;13.080;2023-05-10T14:16:48;6.30;;;4.33;;
20314;SDS011;10315;50.958;13.080;2023-05-10T14:26:50;7.70;;;4.23;;
20314;SDS011;10315;50.958;13.080;2023-05-10T14:36:53;6.47;;;4.40;;
20314;SDS011;10315;50.958;13.080;2023-05-10T14:46:56;4.90;;;3.47;;
20314;SDS011;10315;50.958;13.080;2023-05-10T14:57:00;8.60;;;4.82;;
20314;SDS011;10315;50.958;13.080;2023-05-10T15:07:03;10.53;;;4.97;;
20314;SDS011;10315;50.958;13.080;2023-05-10T15:17:06;8.60;;;4.57;;
20314;SDS011;10315;50.958;13.080;2023-05-10T15:27:09;6.72;;;4.40;;
20314;SDS011;10315;50.958;13.080;2023-05-10T15:37:11;8.60;;;5.27;;
20314;SDS011;10315;50.958;13.080;2023-05-10T15:47:14;6.13;;;4.20;;
20314;SDS011;10315;50.958;13.080;2023-05-10T15:57:15;9.40;;;4.82;;
20314;SDS011;10315;50.958;13.080;2023-05-10T16:07:18;6.85;;;5.05;;
20314;SDS011;10315;50.958;13.080;2023-05-10T16:17:20;5.97;;;4.70;;
20314;SDS011;10315;50.958;13.080;2023-05-10T16:27:23;11.25;;;4.97;;
20314;SDS011;10315;50.958;13.080;2023-05-10T16:37:27;7.03;;;4.93;;
20314;SDS011;10315;50.958;13.080;2023-05-10T16:47:30;8.37;;;5.40;;
20314;SDS011;10315;50.958;13.080;2023-05-10T16:57:32;9.05;;;5.03;;
20314;SDS011;10315;50.958;13.080;2023-05-10T17:07:35;10.13;;;5.60;;
20314;SDS011;10315;50.958;13.080;2023-05-10T17:17:37;10.63;;;5.87;;
20314;SDS011;10315;50.958;13.080;2023-05-10T17:27:40;7.63;;;4.53;;
20314;SDS011;10315;50.958;13.080;2023-05-10T17:37:41;4.70;;;3.60;;
20314;SDS011;10315;50.958;13.080;2023-05-10T17:47:45;8.07;;;4.80;;
20314;SDS011;10315;50.958;13.080;2023-05-10T17:57:46;6.38;;;3.97;;
20314;SDS011;10315;50.958;13.080;2023-05-10T18:07:49;7.22;;;4.88;;
20314;SDS011;10315;50.958;13.080;2023-05-10T18:17:51;7.75;;;5.57;;
20314;SDS011;10315;50.958;13.080;2023-05-10T18:27:54;5.33;;;3.53;;
20314;SDS011;10315;50.958;13.080;2023-05-10T18:37:55;4.77;;;3.63;;
20314;SDS011;10315;50.958;13.080;2023-05-10T18:47:58;6.40;;;4.35;;
20314;SDS011;10315;50.958;13.080;2023-05-10T18:58:00;7.33;;;4.00;;
20314;SDS011;10315;50.958;13.080;2023-05-10T19:08:03;4.97;;;3.40;;
20314;SDS011;10315;50.958;13.080;2023-05-10T19:18:05;7.78;;;4.30;;
20314;SDS011;10315;50.958;13.080;2023-05-10T19:28:08;6.53;;;4.57;;
20314;SDS011;10315;50.958;13.080;2023-05-10T19:38:10;8.33;;;5.77;;
20314;SDS011;10315;50.958;13.080;2023-05-10T19:48:13;11.10;;;6.57;;
20314;SDS011;10315;50.958;13.080;2023-05-10T19:58:14;10.40;;;6.60;;
20314;SDS011;10315;50.958;13.080;2023-05-10T20:08:18;11.40;;;6.75;;
20314;SDS011;10315;50.958;13.080;2023-05-10T20:18:19;9.57;;;6.73;;
20314;SDS011;10315;50.958;13.080;2023-05-10T20:28:23;11.63;;;6.80;;
20314;SDS011;10315;50.958;13.080;2023-05-10T20:38:25;12.20;;;7.40;;
20314;SDS011;10315;50.958;13.080;2023-05-10T20:48:28;13.90;;;8.07;;
20314;SDS011;10315;50.958;13.080;2023-05-10T20:58:33;12.83;;;7.27;;
20314;SDS011;10315;50.958;13.080;2023-05-10T21:08:36;11.93;;;7.90;;
20314;SDS011;10315;50.958;13.080;2023-05-10T21:18:37;12.70;;;7.10;;
20314;SDS011;10315;50.958;13.080;2023-05-10T21:28:40;18.23;;;10.03;;
20314;SDS011;10315;50.958;13.080;2023-05-10T21:38:45;17.67;;;9.20;;
20314;SDS011;10315;50.958;13.080;2023-05-10T21:48:50;17.20;;;8.77;;
20314;SDS011;10315;50.958;13.080;2023-05-10T21:58:51;21.87;;;10.10;;
20314;SDS011;10315;50.958;13.080;2023-05-10T22:08:55;16.87;;;9.43;;
20314;SDS011;10315;50.958;13.080;2023-05-10T22:18:56;17.07;;;9.20;;
20314;SDS011;10315;50.958;13.080;2023-05-10T22:28:59;17.93;;;9.20;;
20314;SDS011;10315;50.958;13.080;2023-05-10T22:39:01;17.03;;;9.43;;
20314;SDS011;10315;50.958;13.080;2023-05-10T22:49:03;15.27;;;9.60;;
20314;SDS011;10315;50.958;13.080;2023-05-10T22:59:05;18.87;;;9.60;;
20314;SDS011;10315;50.958;13.080;2023-05-10T23:09:08;20.20;;;10.20;;
20314;SDS011;10315;50.958;13.080;2023-05-10T23:19:10;16.90;;;10.27;;
20314;SDS011;10315;50.958;13.080;2023-05-10T23:29:13;22.07;;;10.57;;
20314;SDS011;10315;50.958;13.080;2023-05-10T23:39:15;20.73;;;12.20;;
20314;SDS011;10315;50.958;13.080;2023-05-10T23:49:18;20.93;;;11.67;;
20314;SDS011;10315;50.958;13.080;2023-05-10T23:59:19;23.73;;;12.87;;
